18A

Franklin County Airport

Canon, Georgia, USA
METAR K18A 251635Z AUTO 10005KT 10SM SCT028 OVC033 26/21 A3022 RMK AO2 T02600210
Observed Flight Rules
Sep-25 @ 16:35 UTC (30 minutes ago) Visual Flight Rules
Wind Visibility Clouds
100° at 5 knots 10 miles
  • Scattered at 2,800' AGL
  • Overcast at 3,300' AGL
Temperatures Readings
Current 26°C / 79°F
Dewpoint 21°C / 70°F
Humidity 74%
Altimeter 30.22" Hg
Pressure 1023 hPa
Elevation 271
METAR K18A 251635Z AUTO 10005KT 10SM SCT028 OVC033 26/21 A3022 RMK AO2 T02600210
Observed Flight Rules
Sep-25 @ 16:35 UTC
(30 minutes ago)
VFR
Wind Visibility
100° at 5 knots 10 miles
Clouds
  • Scattered at 2,800' AGL
  • Overcast at 3,300' AGL
Temperature Dewpoint
26°C / 79°F 21°C / 70°F
Humidity Altimeter Pressure
74% 30.22" Hg 1023 hPa